sensor_id;sensor_type;location;lat;lon;timestamp;pressure;altitude;pressure_sealevel;temperature;humidity
16544;BME280;8384;47.996;7.786;2023-07-20T00:01:58;98740.91;;;20.93;48.43
16544;BME280;8384;47.996;7.786;2023-07-20T00:04:23;98739.75;;;20.94;48.34
16544;BME280;8384;47.996;7.786;2023-07-20T00:06:48;98749.72;;;20.95;48.34
16544;BME280;8384;47.996;7.786;2023-07-20T00:09:14;98754.97;;;20.88;49.06
16544;BME280;8384;47.996;7.786;2023-07-20T00:11:39;98747.31;;;20.76;52.30
16544;BME280;8384;47.996;7.786;2023-07-20T00:14:05;98741.09;;;20.53;54.14
16544;BME280;8384;47.996;7.786;2023-07-20T00:16:31;98739.63;;;20.29;54.25
16544;BME280;8384;47.996;7.786;2023-07-20T00:18:56;98756.63;;;20.28;55.18
16544;BME280;8384;47.996;7.786;2023-07-20T00:21:21;98747.97;;;20.29;53.82
16544;BME280;8384;47.996;7.786;2023-07-20T00:23:46;98734.91;;;20.21;53.91
16544;BME280;8384;47.996;7.786;2023-07-20T00:26:12;98755.78;;;20.27;54.16
16544;BME280;8384;47.996;7.786;2023-07-20T00:28:37;98741.41;;;20.07;54.64
16544;BME280;8384;47.996;7.786;2023-07-20T00:31:03;98744.03;;;20.13;54.62
16544;BME280;8384;47.996;7.786;2023-07-20T00:33:29;98754.16;;;20.26;54.37
16544;BME280;8384;47.996;7.786;2023-07-20T00:35:54;98747.81;;;20.52;52.92
16544;BME280;8384;47.996;7.786;2023-07-20T00:38:19;98720.03;;;20.52;52.89
16544;BME280;8384;47.996;7.786;2023-07-20T00:40:45;98754.34;;;20.38;53.45
16544;BME280;8384;47.996;7.786;2023-07-20T00:43:11;98746.00;;;20.21;54.31
16544;BME280;8384;47.996;7.786;2023-07-20T00:45:36;98755.47;;;20.20;54.56
16544;BME280;8384;47.996;7.786;2023-07-20T00:48:03;98738.50;;;20.13;54.68
16544;BME280;8384;47.996;7.786;2023-07-20T00:50:29;98748.44;;;20.22;54.66
16544;BME280;8384;47.996;7.786;2023-07-20T00:52:56;98735.88;;;20.43;55.08
16544;BME280;8384;47.996;7.786;2023-07-20T00:55:23;98741.09;;;20.62;52.39
16544;BME280;8384;47.996;7.786;2023-07-20T00:57:48;98744.69;;;20.45;52.87
16544;BME280;8384;47.996;7.786;2023-07-20T01:00:15;98740.13;;;20.40;53.75
16544;BME280;8384;47.996;7.786;2023-07-20T01:02:40;98751.38;;;20.17;55.83
16544;BME280;8384;47.996;7.786;2023-07-20T01:05:06;98747.47;;;20.27;55.52
16544;BME280;8384;47.996;7.786;2023-07-20T01:07:37;98736.53;;;20.48;53.16
16544;BME280;8384;47.996;7.786;2023-07-20T01:10:13;98736.50;;;20.57;52.57
16544;BME280;8384;47.996;7.786;2023-07-20T01:12:43;98740.63;;;20.51;53.66
16544;BME280;8384;47.996;7.786;2023-07-20T01:15:11;98738.19;;;20.23;54.14
16544;BME280;8384;47.996;7.786;2023-07-20T01:17:37;98742.44;;;20.38;53.06
16544;BME280;8384;47.996;7.786;2023-07-20T01:20:02;98728.19;;;19.96;57.52
16544;BME280;8384;47.996;7.786;2023-07-20T01:22:47;98725.72;;;19.85;58.93
16544;BME280;8384;47.996;7.786;2023-07-20T01:28:24;98735.72;;;20.21;56.01
16544;BME280;8384;47.996;7.786;2023-07-20T01:31:07;98716.25;;;19.86;59.22
16544;BME280;8384;47.996;7.786;2023-07-20T01:33:33;98720.84;;;19.91;58.63
16544;BME280;8384;47.996;7.786;2023-07-20T01:35:59;98726.66;;;19.81;57.97
16544;BME280;8384;47.996;7.786;2023-07-20T01:38:25;98726.16;;;19.70;58.39
16544;BME280;8384;47.996;7.786;2023-07-20T01:40:51;98731.06;;;19.73;58.96
16544;BME280;8384;47.996;7.786;2023-07-20T01:43:17;98731.84;;;19.64;58.29
16544;BME280;8384;47.996;7.786;2023-07-20T01:45:43;98717.19;;;19.64;58.68
16544;BME280;8384;47.996;7.786;2023-07-20T01:48:08;98717.53;;;19.71;58.96
16544;BME280;8384;47.996;7.786;2023-07-20T01:50:34;98709.66;;;19.64;59.60
16544;BME280;8384;47.996;7.786;2023-07-20T01:53:00;98727.91;;;19.57;60.96
16544;BME280;8384;47.996;7.786;2023-07-20T01:55:25;98712.34;;;19.29;61.85
16544;BME280;8384;47.996;7.786;2023-07-20T01:57:50;98711.25;;;19.48;61.13
16544;BME280;8384;47.996;7.786;2023-07-20T02:00:16;98714.22;;;19.60;60.48
16544;BME280;8384;47.996;7.786;2023-07-20T02:02:41;98712.13;;;19.66;58.99
16544;BME280;8384;47.996;7.786;2023-07-20T02:05:07;98713.00;;;19.26;61.96
16544;BME280;8384;47.996;7.786;2023-07-20T02:07:33;98708.16;;;19.00;63.68
16544;BME280;8384;47.996;7.786;2023-07-20T02:09:58;98711.09;;;19.04;64.27
16544;BME280;8384;47.996;7.786;2023-07-20T02:12:23;98717.78;;;19.03;63.88
16544;BME280;8384;47.996;7.786;2023-07-20T02:14:49;98720.78;;;18.93;64.39
16544;BME280;8384;47.996;7.786;2023-07-20T02:17:15;98702.44;;;18.74;62.60
16544;BME280;8384;47.996;7.786;2023-07-20T02:19:40;98720.31;;;18.68;62.46
16544;BME280;8384;47.996;7.786;2023-07-20T02:22:06;98712.50;;;18.70;63.34
16544;BME280;8384;47.996;7.786;2023-07-20T02:24:32;98712.69;;;18.73;63.46
16544;BME280;8384;47.996;7.786;2023-07-20T02:26:58;98713.22;;;18.76;62.47
16544;BME280;8384;47.996;7.786;2023-07-20T02:29:23;98698.66;;;18.70;62.07
16544;BME280;8384;47.996;7.786;2023-07-20T02:31:48;98705.69;;;18.76;64.16
16544;BME280;8384;47.996;7.786;2023-07-20T02:34:13;98703.59;;;18.82;64.62
16544;BME280;8384;47.996;7.786;2023-07-20T02:36:39;98710.66;;;18.88;64.61
16544;BME280;8384;47.996;7.786;2023-07-20T02:39:04;98714.22;;;18.80;64.89
16544;BME280;8384;47.996;7.786;2023-07-20T02:41:30;98710.53;;;18.93;64.59
16544;BME280;8384;47.996;7.786;2023-07-20T02:43:56;98703.00;;;19.16;64.11
16544;BME280;8384;47.996;7.786;2023-07-20T02:46:21;98683.09;;;19.06;62.17
16544;BME280;8384;47.996;7.786;2023-07-20T02:48:47;98713.38;;;19.02;63.50
16544;BME280;8384;47.996;7.786;2023-07-20T02:51:12;98652.13;;;18.49;64.20
16544;BME280;8384;47.996;7.786;2023-07-20T02:53:37;98707.25;;;19.23;60.32
16544;BME280;8384;47.996;7.786;2023-07-20T02:56:03;98695.41;;;19.40;56.18
16544;BME280;8384;47.996;7.786;2023-07-20T02:58:28;98713.00;;;19.35;57.21
16544;BME280;8384;47.996;7.786;2023-07-20T03:00:54;98710.94;;;19.49;56.07
16544;BME280;8384;47.996;7.786;2023-07-20T03:03:19;98705.50;;;19.36;56.55
16544;BME280;8384;47.996;7.786;2023-07-20T03:05:45;98702.41;;;18.97;61.46
16544;BME280;8384;47.996;7.786;2023-07-20T03:08:10;98700.44;;;18.66;63.80
16544;BME280;8384;47.996;7.786;2023-07-20T03:10:41;98719.31;;;18.64;63.63
16544;BME280;8384;47.996;7.786;2023-07-20T03:13:07;98716.81;;;18.31;65.26
16544;BME280;8384;47.996;7.786;2023-07-20T03:15:32;98711.94;;;18.13;64.86
16544;BME280;8384;47.996;7.786;2023-07-20T03:17:58;98709.50;;;17.98;65.35
16544;BME280;8384;47.996;7.786;2023-07-20T03:20:23;98710.06;;;17.86;66.58
16544;BME280;8384;47.996;7.786;2023-07-20T03:22:49;98714.13;;;18.03;66.95
16544;BME280;8384;47.996;7.786;2023-07-20T03:25:14;98715.66;;;18.09;66.81
16544;BME280;8384;47.996;7.786;2023-07-20T03:27:39;98713.91;;;18.13;66.76
16544;BME280;8384;47.996;7.786;2023-07-20T03:30:07;98728.31;;;18.24;66.94
16544;BME280;8384;47.996;7.786;2023-07-20T03:32:34;98713.13;;;18.21;66.70
16544;BME280;8384;47.996;7.786;2023-07-20T03:35:00;98719.13;;;18.14;66.61
16544;BME280;8384;47.996;7.786;2023-07-20T03:37:25;98720.88;;;18.10;66.76
16544;BME280;8384;47.996;7.786;2023-07-20T03:39:50;98708.59;;;18.03;68.12
16544;BME280;8384;47.996;7.786;2023-07-20T03:42:16;98723.56;;;18.02;68.58
16544;BME280;8384;47.996;7.786;2023-07-20T03:44:41;98719.56;;;17.94;68.51
16544;BME280;8384;47.996;7.786;2023-07-20T03:47:06;98718.09;;;17.96;68.26
16544;BME280;8384;47.996;7.786;2023-07-20T03:49:32;98726.31;;;17.88;68.36
16544;BME280;8384;47.996;7.786;2023-07-20T03:51:57;98729.19;;;17.82;69.12
16544;BME280;8384;47.996;7.786;2023-07-20T03:54:22;98726.84;;;17.90;68.54
16544;BME280;8384;47.996;7.786;2023-07-20T03:56:47;98725.72;;;17.77;69.07
16544;BME280;8384;47.996;7.786;2023-07-20T03:59:13;98729.78;;;17.93;67.93
16544;BME280;8384;47.996;7.786;2023-07-20T04:01:38;98721.84;;;17.78;69.13
16544;BME280;8384;47.996;7.786;2023-07-20T04:04:06;98738.72;;;17.76;69.94
16544;BME280;8384;47.996;7.786;2023-07-20T04:06:32;98729.44;;;17.58;71.38
16544;BME280;8384;47.996;7.786;2023-07-20T04:08:57;98718.78;;;17.37;72.18
16544;BME280;8384;47.996;7.786;2023-07-20T04:11:22;98731.38;;;17.16;71.49
16544;BME280;8384;47.996;7.786;2023-07-20T04:13:48;98722.66;;;17.22;71.55
16544;BME280;8384;47.996;7.786;2023-07-20T04:16:13;98736.09;;;17.43;71.07
16544;BME280;8384;47.996;7.786;2023-07-20T04:18:38;98733.34;;;17.57;70.42
16544;BME280;8384;47.996;7.786;2023-07-20T04:21:03;98700.78;;;17.40;70.31
16544;BME280;8384;47.996;7.786;2023-07-20T04:23:29;98740.88;;;17.65;70.70
16544;BME280;8384;47.996;7.786;2023-07-20T04:25:54;98744.06;;;17.45;72.37
16544;BME280;8384;47.996;7.786;2023-07-20T04:28:19;98743.13;;;17.35;73.16
16544;BME280;8384;47.996;7.786;2023-07-20T04:30:45;98749.38;;;17.13;74.46
16544;BME280;8384;47.996;7.786;2023-07-20T04:33:10;98737.81;;;16.78;75.07
16544;BME280;8384;47.996;7.786;2023-07-20T04:35:51;98751.75;;;16.87;75.86
16544;BME280;8384;47.996;7.786;2023-07-20T04:38:17;98733.78;;;16.89;74.75
16544;BME280;8384;47.996;7.786;2023-07-20T04:40:47;98739.03;;;17.05;74.89
16544;BME280;8384;47.996;7.786;2023-07-20T04:43:14;98746.75;;;17.36;74.48
16544;BME280;8384;47.996;7.786;2023-07-20T04:45:39;98746.22;;;17.48;73.75
16544;BME280;8384;47.996;7.786;2023-07-20T04:48:09;98755.53;;;17.38;74.12
16544;BME280;8384;47.996;7.786;2023-07-20T04:50:35;98750.50;;;17.12;75.24
16544;BME280;8384;47.996;7.786;2023-07-20T04:53:00;98758.56;;;17.08;76.24
16544;BME280;8384;47.996;7.786;2023-07-20T04:55:27;98749.03;;;17.01;76.81
16544;BME280;8384;47.996;7.786;2023-07-20T04:57:53;98750.84;;;16.91;77.55
16544;BME280;8384;47.996;7.786;2023-07-20T05:00:18;98754.06;;;16.99;76.00
16544;BME280;8384;47.996;7.786;2023-07-20T05:02:44;98742.31;;;17.07;77.07
16544;BME280;8384;47.996;7.786;2023-07-20T05:05:09;98750.63;;;17.21;75.25
16544;BME280;8384;47.996;7.786;2023-07-20T05:07:34;98748.38;;;17.37;74.97
16544;BME280;8384;47.996;7.786;2023-07-20T05:10:00;98743.38;;;17.53;74.64
16544;BME280;8384;47.996;7.786;2023-07-20T05:12:25;98749.69;;;17.53;75.11
16544;BME280;8384;47.996;7.786;2023-07-20T05:14:51;98759.00;;;17.44;76.33
16544;BME280;8384;47.996;7.786;2023-07-20T05:17:16;98747.94;;;17.16;77.25
16544;BME280;8384;47.996;7.786;2023-07-20T05:19:41;98751.94;;;17.37;76.81
16544;BME280;8384;47.996;7.786;2023-07-20T05:22:06;98752.97;;;17.42;76.91
16544;BME280;8384;47.996;7.786;2023-07-20T05:24:32;98762.78;;;17.34;77.12
16544;BME280;8384;47.996;7.786;2023-07-20T05:26:58;98744.50;;;17.38;77.72
16544;BME280;8384;47.996;7.786;2023-07-20T05:29:24;98748.66;;;17.49;77.84
16544;BME280;8384;47.996;7.786;2023-07-20T05:31:49;98729.03;;;17.37;79.01
16544;BME280;8384;47.996;7.786;2023-07-20T05:34:14;98743.03;;;17.54;78.08
16544;BME280;8384;47.996;7.786;2023-07-20T05:36:39;98757.88;;;17.87;76.17
16544;BME280;8384;47.996;7.786;2023-07-20T05:39:05;98753.75;;;17.98;74.60
16544;BME280;8384;47.996;7.786;2023-07-20T05:41:30;98748.00;;;18.08;74.34
16544;BME280;8384;47.996;7.786;2023-07-20T05:43:55;98755.72;;;18.34;74.37
16544;BME280;8384;47.996;7.786;2023-07-20T05:46:21;98747.16;;;18.22;72.59
16544;BME280;8384;47.996;7.786;2023-07-20T05:48:46;98752.38;;;18.23;75.18
16544;BME280;8384;47.996;7.786;2023-07-20T05:51:11;98769.50;;;18.71;71.80
16544;BME280;8384;47.996;7.786;2023-07-20T05:53:36;98761.91;;;18.54;71.08
16544;BME280;8384;47.996;7.786;2023-07-20T05:56:03;98779.16;;;18.51;72.48
16544;BME280;8384;47.996;7.786;2023-07-20T05:58:28;98762.84;;;18.49;72.63
16544;BME280;8384;47.996;7.786;2023-07-20T06:00:53;98761.81;;;18.68;72.47
16544;BME280;8384;47.996;7.786;2023-07-20T06:03:19;98763.06;;;18.98;66.33
16544;BME280;8384;47.996;7.786;2023-07-20T06:05:46;98759.06;;;18.91;66.80
16544;BME280;8384;47.996;7.786;2023-07-20T06:08:12;98761.28;;;19.02;67.36
16544;BME280;8384;47.996;7.786;2023-07-20T06:10:37;98766.75;;;19.16;67.69
16544;BME280;8384;47.996;7.786;2023-07-20T06:13:02;98776.41;;;19.28;68.46
16544;BME280;8384;47.996;7.786;2023-07-20T06:15:30;98769.19;;;19.18;69.76
16544;BME280;8384;47.996;7.786;2023-07-20T06:17:56;98764.09;;;19.11;68.97
16544;BME280;8384;47.996;7.786;2023-07-20T06:20:23;98765.31;;;19.28;71.60
16544;BME280;8384;47.996;7.786;2023-07-20T06:22:48;98768.31;;;19.40;72.63
16544;BME280;8384;47.996;7.786;2023-07-20T06:25:13;98772.94;;;19.22;73.43
16544;BME280;8384;47.996;7.786;2023-07-20T06:27:39;98747.66;;;19.15;72.65
16544;BME280;8384;47.996;7.786;2023-07-20T06:30:04;98772.50;;;19.29;71.75
16544;BME280;8384;47.996;7.786;2023-07-20T06:32:30;98764.94;;;19.52;67.79
16544;BME280;8384;47.996;7.786;2023-07-20T06:34:55;98765.31;;;19.68;65.89
16544;BME280;8384;47.996;7.786;2023-07-20T06:37:20;98762.06;;;19.75;65.60
16544;BME280;8384;47.996;7.786;2023-07-20T06:39:46;98763.84;;;19.79;64.46
16544;BME280;8384;47.996;7.786;2023-07-20T06:42:12;98750.63;;;19.76;64.76
16544;BME280;8384;47.996;7.786;2023-07-20T06:44:37;98759.22;;;20.06;63.05
16544;BME280;8384;47.996;7.786;2023-07-20T06:47:02;98761.03;;;20.20;62.05
16544;BME280;8384;47.996;7.786;2023-07-20T06:49:28;98766.91;;;20.45;61.52
16544;BME280;8384;47.996;7.786;2023-07-20T06:51:54;98775.38;;;20.57;57.84
16544;BME280;8384;47.996;7.786;2023-07-20T06:54:19;98773.28;;;20.80;58.80
16544;BME280;8384;47.996;7.786;2023-07-20T06:56:45;98767.25;;;20.78;54.54
16544;BME280;8384;47.996;7.786;2023-07-20T06:59:10;98761.81;;;20.73;54.25
16544;BME280;8384;47.996;7.786;2023-07-20T07:01:35;98752.19;;;20.71;55.04
16544;BME280;8384;47.996;7.786;2023-07-20T07:04:01;98769.66;;;20.97;55.75
16544;BME280;8384;47.996;7.786;2023-07-20T07:06:26;98744.34;;;20.90;55.34
16544;BME280;8384;47.996;7.786;2023-07-20T07:08:52;98770.44;;;21.07;54.32
16544;BME280;8384;47.996;7.786;2023-07-20T07:11:18;98769.50;;;21.03;55.64
16544;BME280;8384;47.996;7.786;2023-07-20T07:13:43;98757.41;;;20.81;54.59
16544;BME280;8384;47.996;7.786;2023-07-20T07:16:08;98769.81;;;20.92;53.31
16544;BME280;8384;47.996;7.786;2023-07-20T07:18:34;98746.00;;;20.65;50.13
16544;BME280;8384;47.996;7.786;2023-07-20T07:20:59;98773.25;;;20.98;49.16
16544;BME280;8384;47.996;7.786;2023-07-20T07:23:24;98770.72;;;21.23;50.46
16544;BME280;8384;47.996;7.786;2023-07-20T07:25:49;98773.34;;;21.19;48.12
16544;BME280;8384;47.996;7.786;2023-07-20T07:28:15;98778.13;;;21.10;49.36
16544;BME280;8384;47.996;7.786;2023-07-20T07:30:40;98782.44;;;20.90;49.08
16544;BME280;8384;47.996;7.786;2023-07-20T07:33:06;98777.03;;;20.85;48.16
16544;BME280;8384;47.996;7.786;2023-07-20T07:35:31;98785.38;;;20.85;48.86
16544;BME280;8384;47.996;7.786;2023-07-20T07:37:56;98778.97;;;21.02;49.23
16544;BME280;8384;47.996;7.786;2023-07-20T07:40:21;98778.41;;;21.26;48.35
16544;BME280;8384;47.996;7.786;2023-07-20T07:42:47;98769.03;;;21.39;47.71
16544;BME280;8384;47.996;7.786;2023-07-20T07:45:12;98781.81;;;21.79;46.41
16544;BME280;8384;47.996;7.786;2023-07-20T07:47:39;98778.47;;;22.16;46.27
16544;BME280;8384;47.996;7.786;2023-07-20T07:50:04;98771.69;;;22.26;44.08
16544;BME280;8384;47.996;7.786;2023-07-20T07:52:30;98778.09;;;22.47;44.08
16544;BME280;8384;47.996;7.786;2023-07-20T07:54:55;98770.06;;;22.67;43.50
16544;BME280;8384;47.996;7.786;2023-07-20T07:57:20;98777.59;;;23.00;42.81
16544;BME280;8384;47.996;7.786;2023-07-20T07:59:45;98777.97;;;23.57;43.13
16544;BME280;8384;47.996;7.786;2023-07-20T08:02:11;98781.47;;;23.79;41.03
16544;BME280;8384;47.996;7.786;2023-07-20T08:04:36;98774.94;;;24.00;40.16
16544;BME280;8384;47.996;7.786;2023-07-20T08:07:03;98786.72;;;23.56;40.64
16544;BME280;8384;47.996;7.786;2023-07-20T08:09:29;98781.25;;;23.13;42.39
16544;BME280;8384;47.996;7.786;2023-07-20T08:11:54;98780.09;;;23.14;42.66
16544;BME280;8384;47.996;7.786;2023-07-20T08:14:19;98777.97;;;23.11;42.28
16544;BME280;8384;47.996;7.786;2023-07-20T08:16:45;98770.53;;;22.69;43.04
16544;BME280;8384;47.996;7.786;2023-07-20T08:19:11;98780.75;;;22.44;43.47
16544;BME280;8384;47.996;7.786;2023-07-20T08:21:36;98769.19;;;22.54;41.57
16544;BME280;8384;47.996;7.786;2023-07-20T08:24:01;98773.78;;;22.71;42.51
16544;BME280;8384;47.996;7.786;2023-07-20T08:26:26;98751.66;;;22.75;41.92
16544;BME280;8384;47.996;7.786;2023-07-20T08:28:52;98741.09;;;22.81;43.08
16544;BME280;8384;47.996;7.786;2023-07-20T08:31:17;98756.72;;;23.06;42.02
16544;BME280;8384;47.996;7.786;2023-07-20T08:33:43;98758.91;;;23.34;42.80
16544;BME280;8384;47.996;7.786;2023-07-20T08:36:08;98775.88;;;23.79;41.82
16544;BME280;8384;47.996;7.786;2023-07-20T08:38:34;98731.91;;;24.01;39.93
16544;BME280;8384;47.996;7.786;2023-07-20T08:40:59;98750.81;;;24.32;38.81
16544;BME280;8384;47.996;7.786;2023-07-20T08:43:27;98752.53;;;24.37;38.46
16544;BME280;8384;47.996;7.786;2023-07-20T08:45:54;98759.31;;;24.36;38.07
16544;BME280;8384;47.996;7.786;2023-07-20T08:48:21;98768.88;;;24.92;37.75
16544;BME280;8384;47.996;7.786;2023-07-20T08:50:51;98766.06;;;24.35;38.88
16544;BME280;8384;47.996;7.786;2023-07-20T08:53:19;98771.56;;;23.69;39.84
16544;BME280;8384;47.996;7.786;2023-07-20T08:55:45;98773.63;;;23.35;40.32
16544;BME280;8384;47.996;7.786;2023-07-20T08:58:12;98768.09;;;23.47;39.58
16544;BME280;8384;47.996;7.786;2023-07-20T09:00:38;98770.19;;;23.63;37.42
16544;BME280;8384;47.996;7.786;2023-07-20T09:03:04;98756.78;;;24.18;37.53
16544;BME280;8384;47.996;7.786;2023-07-20T09:05:30;98740.28;;;24.41;37.16
16544;BME280;8384;47.996;7.786;2023-07-20T09:07:55;98737.16;;;24.02;38.70
16544;BME280;8384;47.996;7.786;2023-07-20T09:10:23;98750.56;;;24.94;37.08
16544;BME280;8384;47.996;7.786;2023-07-20T09:12:49;98750.84;;;25.50;37.34
16544;BME280;8384;47.996;7.786;2023-07-20T09:15:15;98760.50;;;26.40;35.38
16544;BME280;8384;47.996;7.786;2023-07-20T09:17:51;98753.44;;;26.65;31.77
16544;BME280;8384;47.996;7.786;2023-07-20T09:20:19;98754.13;;;25.87;34.15
16544;BME280;8384;47.996;7.786;2023-07-20T09:22:44;98738.34;;;25.63;35.27
16544;BME280;8384;47.996;7.786;2023-07-20T09:25:17;98749.09;;;25.13;35.48
16544;BME280;8384;47.996;7.786;2023-07-20T09:27:45;98746.47;;;25.20;36.06
16544;BME280;8384;47.996;7.786;2023-07-20T09:30:11;98741.63;;;25.49;36.27
16544;BME280;8384;47.996;7.786;2023-07-20T09:35:06;98697.75;;;26.25;35.37
16544;BME280;8384;47.996;7.786;2023-07-20T09:37:33;98690.78;;;26.34;33.93
16544;BME280;8384;47.996;7.786;2023-07-20T09:39:59;98743.75;;;26.24;33.93
16544;BME280;8384;47.996;7.786;2023-07-20T09:42:24;98714.00;;;25.99;35.56
16544;BME280;8384;47.996;7.786;2023-07-20T09:44:50;98729.22;;;26.38;33.34
16544;BME280;8384;47.996;7.786;2023-07-20T09:47:23;98717.13;;;25.62;34.84
16544;BME280;8384;47.996;7.786;2023-07-20T09:49:48;98718.41;;;25.16;36.35
16544;BME280;8384;47.996;7.786;2023-07-20T09:52:14;98709.53;;;24.54;37.11
16544;BME280;8384;47.996;7.786;2023-07-20T09:54:42;98706.59;;;25.23;36.55
16544;BME280;8384;47.996;7.786;2023-07-20T09:57:07;98712.09;;;26.03;35.66
16544;BME280;8384;47.996;7.786;2023-07-20T09:59:37;98715.66;;;26.20;34.04
16544;BME280;8384;47.996;7.786;2023-07-20T10:02:08;98690.91;;;25.86;34.19
16544;BME280;8384;47.996;7.786;2023-07-20T10:04:36;98708.66;;;26.49;32.81
16544;BME280;8384;47.996;7.786;2023-07-20T10:07:05;98702.66;;;25.76;34.04
16544;BME280;8384;47.996;7.786;2023-07-20T10:09:39;98686.41;;;25.82;34.03
16544;BME280;8384;47.996;7.786;2023-07-20T10:12:07;98684.63;;;25.73;34.33
16544;BME280;8384;47.996;7.786;2023-07-20T10:14:35;98689.91;;;25.27;35.00
16544;BME280;8384;47.996;7.786;2023-07-20T10:17:05;98683.97;;;25.44;34.42
16544;BME280;8384;47.996;7.786;2023-07-20T10:19:34;98688.72;;;25.44;35.85
16544;BME280;8384;47.996;7.786;2023-07-20T10:22:09;98672.00;;;25.64;34.26
16544;BME280;8384;47.996;7.786;2023-07-20T10:24:36;98684.09;;;27.05;33.16
16544;BME280;8384;47.996;7.786;2023-07-20T10:27:02;98682.16;;;27.09;33.00
16544;BME280;8384;47.996;7.786;2023-07-20T10:29:28;98683.78;;;26.87;33.61
16544;BME280;8384;47.996;7.786;2023-07-20T10:31:55;98681.97;;;27.72;32.05
16544;BME280;8384;47.996;7.786;2023-07-20T10:34:21;98677.91;;;28.27;31.25
16544;BME280;8384;47.996;7.786;2023-07-20T10:36:47;98687.88;;;28.89;30.51
16544;BME280;8384;47.996;7.786;2023-07-20T10:39:24;98678.16;;;28.14;30.85
16544;BME280;8384;47.996;7.786;2023-07-20T10:42:08;98675.59;;;27.48;32.71
16544;BME280;8384;47.996;7.786;2023-07-20T10:44:36;98676.09;;;26.64;33.52
16544;BME280;8384;47.996;7.786;2023-07-20T10:47:08;98657.97;;;25.80;34.44
16544;BME280;8384;47.996;7.786;2023-07-20T10:49:34;98651.19;;;25.81;34.33
16544;BME280;8384;47.996;7.786;2023-07-20T10:52:04;98668.38;;;25.99;35.00
16544;BME280;8384;47.996;7.786;2023-07-20T10:56:56;98672.84;;;26.39;33.49
16544;BME280;8384;47.996;7.786;2023-07-20T11:01:55;98662.59;;;26.27;33.31
16544;BME280;8384;47.996;7.786;2023-07-20T11:07:03;98652.44;;;28.47;31.82
16544;BME280;8384;47.996;7.786;2023-07-20T11:09:34;98655.53;;;28.38;30.46
16544;BME280;8384;47.996;7.786;2023-07-20T11:12:13;98655.06;;;27.71;30.87
16544;BME280;8384;47.996;7.786;2023-07-20T11:14:56;98638.22;;;27.71;31.52
16544;BME280;8384;47.996;7.786;2023-07-20T11:17:29;98638.22;;;28.32;31.14
16544;BME280;8384;47.996;7.786;2023-07-20T11:19:56;98630.09;;;29.02;30.29
16544;BME280;8384;47.996;7.786;2023-07-20T11:22:21;98645.78;;;27.94;29.99
16544;BME280;8384;47.996;7.786;2023-07-20T11:24:47;98632.91;;;27.12;31.92
16544;BME280;8384;47.996;7.786;2023-07-20T11:27:14;98636.28;;;27.48;31.55
16544;BME280;8384;47.996;7.786;2023-07-20T11:29:40;98610.50;;;26.89;33.93
16544;BME280;8384;47.996;7.786;2023-07-20T11:32:05;98636.66;;;26.30;33.96
16544;BME280;8384;47.996;7.786;2023-07-20T11:34:31;98608.88;;;25.86;33.81
16544;BME280;8384;47.996;7.786;2023-07-20T11:36:57;98625.13;;;26.35;32.63
16544;BME280;8384;47.996;7.786;2023-07-20T11:39:23;98618.16;;;26.92;31.35
16544;BME280;8384;47.996;7.786;2023-07-20T11:41:53;98607.56;;;26.82;31.30
16544;BME280;8384;47.996;7.786;2023-07-20T11:44:21;98618.94;;;27.16;31.00
16544;BME280;8384;47.996;7.786;2023-07-20T11:46:53;98614.66;;;27.79;29.98
16544;BME280;8384;47.996;7.786;2023-07-20T11:49:24;98613.91;;;27.82;29.22
16544;BME280;8384;47.996;7.786;2023-07-20T11:51:49;98615.94;;;28.92;28.12
16544;BME280;8384;47.996;7.786;2023-07-20T11:54:15;98610.19;;;29.96;28.12
16544;BME280;8384;47.996;7.786;2023-07-20T11:56:41;98602.72;;;29.48;26.58
16544;BME280;8384;47.996;7.786;2023-07-20T11:59:06;98605.00;;;28.83;28.50
16544;BME280;8384;47.996;7.786;2023-07-20T12:01:32;98600.63;;;28.85;30.05
16544;BME280;8384;47.996;7.786;2023-07-20T12:03:59;98590.63;;;27.82;29.58
16544;BME280;8384;47.996;7.786;2023-07-20T12:06:25;98587.09;;;27.58;30.98
16544;BME280;8384;47.996;7.786;2023-07-20T12:08:54;98585.56;;;28.25;30.30
16544;BME280;8384;47.996;7.786;2023-07-20T12:11:37;98593.16;;;28.25;29.45
16544;BME280;8384;47.996;7.786;2023-07-20T12:14:07;98598.06;;;27.67;31.00
16544;BME280;8384;47.996;7.786;2023-07-20T12:16:33;98583.38;;;28.91;28.81
16544;BME280;8384;47.996;7.786;2023-07-20T12:19:02;98588.03;;;29.87;28.67
16544;BME280;8384;47.996;7.786;2023-07-20T12:21:29;98579.44;;;30.83;28.43
16544;BME280;8384;47.996;7.786;2023-07-20T12:23:56;98572.97;;;30.90;26.97
16544;BME280;8384;47.996;7.786;2023-07-20T12:26:22;98583.88;;;30.73;27.32
16544;BME280;8384;47.996;7.786;2023-07-20T12:28:49;98575.88;;;29.65;27.26
16544;BME280;8384;47.996;7.786;2023-07-20T12:31:14;98558.03;;;29.39;27.95
16544;BME280;8384;47.996;7.786;2023-07-20T12:33:40;98563.06;;;29.15;29.36
16544;BME280;8384;47.996;7.786;2023-07-20T12:36:05;98549.75;;;28.60;28.09
16544;BME280;8384;47.996;7.786;2023-07-20T12:38:30;98559.94;;;28.31;27.25
16544;BME280;8384;47.996;7.786;2023-07-20T12:40:56;98542.38;;;28.07;28.04
16544;BME280;8384;47.996;7.786;2023-07-20T12:43:22;98549.13;;;28.78;27.03
16544;BME280;8384;47.996;7.786;2023-07-20T12:45:47;98550.63;;;28.68;27.77
16544;BME280;8384;47.996;7.786;2023-07-20T12:48:13;98545.94;;;28.79;27.59
16544;BME280;8384;47.996;7.786;2023-07-20T12:50:38;98541.72;;;28.17;27.76
16544;BME280;8384;47.996;7.786;2023-07-20T12:53:04;98530.19;;;28.74;27.40
16544;BME280;8384;47.996;7.786;2023-07-20T12:55:29;98533.84;;;28.79;27.49
16544;BME280;8384;47.996;7.786;2023-07-20T12:57:55;98534.69;;;28.83;27.48
16544;BME280;8384;47.996;7.786;2023-07-20T13:00:20;98519.91;;;28.07;28.39
16544;BME280;8384;47.996;7.786;2023-07-20T13:02:48;98533.56;;;28.50;29.00
16544;BME280;8384;47.996;7.786;2023-07-20T13:05:14;98534.06;;;29.04;27.33
16544;BME280;8384;47.996;7.786;2023-07-20T13:07:40;98496.81;;;28.69;27.62
16544;BME280;8384;47.996;7.786;2023-07-20T13:10:06;98523.66;;;29.12;27.98
16544;BME280;8384;47.996;7.786;2023-07-20T13:12:33;98528.59;;;28.73;28.74
16544;BME280;8384;47.996;7.786;2023-07-20T13:14:59;98523.56;;;28.11;30.13
16544;BME280;8384;47.996;7.786;2023-07-20T13:17:26;98534.13;;;29.15;28.50
16544;BME280;8384;47.996;7.786;2023-07-20T13:19:52;98521.69;;;28.67;27.98